Time;durP1;ratioP1;P1;durP2;ratioP2;P2;SDS_P1;SDS_P2;PMS_P1;PMS_P2;Temp;Humidity;BMP_temperature;BMP_pressure;BME280_temperature;BME280_humidity;BME280_pressure;Samples;Min_cycle;Max_cycle;Signal;HPM_P1;HPM_P2
2023/02/08 00:00:12;;;;;;;22.00;15.83;;;3.60;99.90;;;;;;5054488;28;20231;-62
2023/02/08 00:02:37;;;;;;;20.30;15.40;;;3.40;99.90;;;;;;5053317;28;20220;-67
2023/02/08 00:05:04;;;;;;;18.00;15.27;;;3.40;99.90;;;;;;5026275;28;20564;-62
2023/02/08 00:07:30;;;;;;;20.98;14.95;;;3.50;99.90;;;;;;5053502;28;20189;-62
2023/02/08 00:09:55;;;;;;;19.20;15.47;;;3.50;99.90;;;;;;5053757;28;20182;-62
2023/02/08 00:12:21;;;;;;;20.63;15.77;;;3.50;99.90;;;;;;5053606;28;20649;-63
2023/02/08 00:14:47;;;;;;;18.90;15.77;;;3.60;99.90;;;;;;5053012;28;20186;-63
2023/02/08 00:17:12;;;;;;;22.70;15.93;;;3.60;99.90;;;;;;5054202;28;20177;-63
2023/02/08 00:19:38;;;;;;;21.10;15.83;;;3.50;99.90;;;;;;5052675;28;20182;-63
2023/02/08 00:22:04;;;;;;;19.83;15.20;;;3.50;99.90;;;;;;5054602;28;20181;-61
2023/02/08 00:24:29;;;;;;;22.37;15.50;;;3.50;99.90;;;;;;5052245;28;20185;-62
2023/02/08 00:26:55;;;;;;;20.67;16.00;;;3.60;99.90;;;;;;5053152;28;20173;-63
2023/02/08 00:29:21;;;;;;;20.10;15.23;;;3.50;99.90;;;;;;5015721;28;20209;-62
2023/02/08 00:31:46;;;;;;;18.50;14.40;;;3.50;99.90;;;;;;5030637;28;20178;-62
2023/02/08 00:34:12;;;;;;;18.60;15.10;;;3.40;99.90;;;;;;5023984;28;20654;-62
2023/02/08 00:36:38;;;;;;;22.50;15.10;;;3.40;99.90;;;;;;5033388;28;20539;-62
2023/02/08 00:39:03;;;;;;;22.50;16.40;;;3.40;99.90;;;;;;5034011;28;20182;-62
2023/02/08 00:41:30;;;;;;;20.53;16.13;;;3.40;99.90;;;;;;5032917;28;20226;-62
2023/02/08 00:43:55;;;;;;;19.63;15.35;;;3.40;99.90;;;;;;5037103;28;20189;-62
2023/02/08 00:46:22;;;;;;;22.63;15.73;;;3.40;99.90;;;;;;5032999;28;20186;-62
2023/02/08 00:48:48;;;;;;;15.95;14.02;;;3.40;99.90;;;;;;5015971;28;20221;-62
2023/02/08 00:51:14;;;;;;;18.30;15.27;;;3.40;99.90;;;;;;5016044;28;20206;-62
2023/02/08 00:53:43;;;;;;;22.52;15.55;;;3.30;99.90;;;;;;5014823;28;20243;-61
2023/02/08 00:56:11;;;;;;;21.05;15.30;;;3.40;99.90;;;;;;5015678;28;20217;-62
2023/02/08 00:58:37;;;;;;;20.38;14.70;;;3.30;99.90;;;;;;5042536;28;20710;-62
2023/02/08 01:01:03;;;;;;;19.93;14.90;;;3.30;99.90;;;;;;5053364;28;20208;-62
2023/02/08 01:03:29;;;;;;;19.80;14.75;;;3.30;99.90;;;;;;5051491;28;20192;-62
2023/02/08 01:06:00;;;;;;;20.88;14.18;;;3.30;99.90;;;;;;5052637;28;20292;-62
2023/02/08 01:08:25;;;;;;;18.80;14.85;;;3.30;99.90;;;;;;5052775;28;20173;-62
2023/02/08 01:10:51;;;;;;;17.17;14.43;;;3.20;99.90;;;;;;5053416;28;20173;-62
2023/02/08 01:13:17;;;;;;;16.75;14.70;;;3.30;99.90;;;;;;5031032;28;20213;-62
2023/02/08 01:15:43;;;;;;;18.57;13.20;;;3.30;99.90;;;;;;5032405;28;20548;-62
2023/02/08 01:18:09;;;;;;;21.30;15.07;;;3.20;99.90;;;;;;5048176;28;20432;-62
2023/02/08 01:20:36;;;;;;;16.80;14.20;;;3.20;99.90;;;;;;5052493;28;20187;-62
2023/02/08 01:23:03;;;;;;;17.20;14.32;;;3.20;99.90;;;;;;5036497;28;20245;-63
2023/02/08 01:25:29;;;;;;;19.70;14.02;;;3.10;99.90;;;;;;5050391;28;20195;-62
2023/02/08 01:27:56;;;;;;;21.33;15.67;;;3.10;99.90;;;;;;5052965;28;20173;-62
2023/02/08 01:30:22;;;;;;;19.05;13.98;;;3.10;99.90;;;;;;5034547;28;20215;-63
2023/02/08 01:32:48;;;;;;;22.20;13.65;;;3.10;99.90;;;;;;5029897;28;20638;-62
2023/02/08 01:35:14;;;;;;;25.03;14.40;;;3.10;99.90;;;;;;5032935;28;20220;-62
2023/02/08 01:37:40;;;;;;;16.00;13.10;;;3.10;99.90;;;;;;5052487;28;20419;-62
2023/02/08 01:40:06;;;;;;;17.23;13.83;;;3.10;99.90;;;;;;5034703;28;20227;-62
2023/02/08 01:42:32;;;;;;;18.35;13.10;;;3.10;99.90;;;;;;5052158;28;20188;-62
2023/02/08 01:45:19;;;;;;;19.80;14.40;;;3.10;99.90;;;;;;5051173;28;20189;-62
2023/02/08 01:47:55;;;;;;;15.50;13.60;;;3.10;99.90;;;;;;5034189;28;20177;-63
2023/02/08 01:50:25;;;;;;;19.67;14.27;;;3.10;99.90;;;;;;5052628;28;20192;-62
2023/02/08 01:52:51;;;;;;;17.08;13.80;;;3.10;99.90;;;;;;5052008;28;20201;-67
2023/02/08 01:55:28;;;;;;;17.83;14.60;;;3.10;99.90;;;;;;5033658;28;20211;-62
2023/02/08 01:57:58;;;;;;;22.08;13.82;;;3.00;99.90;;;;;;5052674;28;20620;-62
2023/02/08 02:00:25;;;;;;;16.75;13.95;;;3.00;99.90;;;;;;5051905;28;20311;-63
2023/02/08 02:02:52;;;;;;;16.30;13.60;;;3.00;99.90;;;;;;5050980;28;20545;-62
2023/02/08 02:05:20;;;;;;;16.27;13.68;;;3.00;99.90;;;;;;5052187;28;20640;-62
2023/02/08 02:07:47;;;;;;;18.83;13.15;;;3.00;99.90;;;;;;5038511;28;20212;-62
2023/02/08 02:10:33;;;;;;;17.13;12.50;;;3.00;99.90;;;;;;5032138;28;20240;-62
2023/02/08 02:13:13;;;;;;;20.20;13.63;;;3.00;99.90;;;;;;5048217;28;20209;-62
2023/02/08 02:15:40;;;;;;;18.90;13.52;;;3.00;99.90;;;;;;5051794;28;20173;-62
2023/02/08 02:18:07;;;;;;;18.00;13.20;;;3.00;99.90;;;;;;5052021;28;20543;-62
2023/02/08 02:20:58;;;;;;;19.90;13.88;;;3.00;99.90;;;;;;5051202;28;20233;-62
2023/02/08 02:23:51;;;;;;;17.38;13.40;;;3.00;99.90;;;;;;5031425;28;20186;-62
2023/02/08 02:26:47;;;;;;;17.67;13.75;;;3.00;99.90;;;;;;5032022;28;20275;-65
2023/02/08 02:29:33;;;;;;;15.65;12.25;;;3.00;99.90;;;;;;5032279;28;20591;-62
2023/02/08 02:32:33;;;;;;;17.15;13.10;;;3.00;99.90;;;;;;5041902;28;20191;-62
2023/02/08 02:35:04;;;;;;;17.52;12.48;;;3.00;99.90;;;;;;5029868;28;20197;-62
2023/02/08 02:37:30;;;;;;;15.93;12.80;;;2.90;99.90;;;;;;5035626;28;20163;-62
2023/02/08 02:40:04;;;;;;;17.30;13.13;;;2.90;99.90;;;;;;5035885;28;20177;-62
2023/02/08 02:45:59;;;;;;;17.98;13.98;;;2.90;99.90;;;;;;5013275;28;20192;-62
2023/02/08 02:49:09;;;;;;;16.50;14.43;;;2.80;99.90;;;;;;5053854;28;20197;-68
2023/02/08 02:51:57;;;;;;;16.83;13.25;;;2.80;99.90;;;;;;4954537;28;20199;-62
2023/02/08 02:54:44;;;;;;;18.55;13.60;;;2.80;99.90;;;;;;5012681;28;20611;-62
2023/02/08 02:57:13;;;;;;;15.63;13.45;;;2.80;99.90;;;;;;5043224;28;20192;-62
2023/02/08 02:59:41;;;;;;;15.23;12.55;;;2.80;99.90;;;;;;5055148;28;20577;-63
2023/02/08 03:02:08;;;;;;;18.55;13.75;;;2.80;99.90;;;;;;5046484;28;20216;-62
2023/02/08 03:04:34;;;;;;;18.70;13.52;;;2.80;99.90;;;;;;5035156;28;20181;-62
2023/02/08 03:07:15;;;;;;;21.33;13.17;;;2.80;99.90;;;;;;5035609;28;20692;-62
2023/02/08 03:10:18;;;;;;;15.25;12.02;;;2.80;99.90;;;;;;5017342;28;20181;-62
2023/02/08 03:13:15;;;;;;;17.15;12.32;;;2.80;99.90;;;;;;5049411;28;20213;-62
2023/02/08 03:16:02;;;;;;;16.25;12.50;;;2.80;99.90;;;;;;5008219;28;20197;-62
2023/02/08 03:18:51;;;;;;;15.90;12.20;;;2.90;99.90;;;;;;5053618;28;20192;-63
2023/02/08 03:21:33;;;;;;;14.70;11.70;;;2.90;99.90;;;;;;5054274;28;20545;-62
2023/02/08 03:24:31;;;;;;;15.93;12.68;;;2.80;99.90;;;;;;5041558;28;20224;-62
2023/02/08 03:27:06;;;;;;;15.20;12.30;;;2.90;99.90;;;;;;5024308;28;20189;-62
2023/02/08 03:30:06;;;;;;;13.88;11.80;;;2.90;99.90;;;;;;5059731;28;20175;-64
2023/02/08 03:32:40;;;;;;;13.95;11.88;;;2.90;99.90;;;;;;4997152;28;20313;-64
2023/02/08 03:35:18;;;;;;;17.20;13.13;;;2.80;99.90;;;;;;5038127;28;20264;-62
2023/02/08 03:37:49;;;;;;;17.65;13.85;;;2.80;99.90;;;;;;5023557;28;20174;-63
2023/02/08 03:40:25;;;;;;;16.05;13.00;;;2.80;99.90;;;;;;5022243;28;20212;-62
2023/02/08 03:42:55;;;;;;;18.83;12.52;;;2.80;99.90;;;;;;5056191;28;20712;-62
2023/02/08 03:45:32;;;;;;;18.25;12.07;;;2.80;99.90;;;;;;5051996;28;20276;-62
2023/02/08 03:48:05;;;;;;;15.45;12.77;;;2.80;99.90;;;;;;5054549;28;20187;-62
2023/02/08 03:50:35;;;;;;;18.75;13.88;;;2.80;99.90;;;;;;5054657;28;20185;-67
2023/02/08 03:53:02;;;;;;;15.65;12.95;;;2.80;99.90;;;;;;5069438;28;20285;-62
2023/02/08 03:55:32;;;;;;;16.75;12.90;;;2.80;99.90;;;;;;5074171;28;20510;-62
2023/02/08 03:58:11;;;;;;;17.08;12.90;;;2.80;99.90;;;;;;5074258;28;20165;-62
2023/02/08 04:00:42;;;;;;;16.15;13.00;;;2.80;99.90;;;;;;5073299;28;20161;-63
2023/02/08 04:03:19;;;;;;;14.43;11.63;;;2.80;99.90;;;;;;5073014;28;20352;-62
2023/02/08 04:05:45;;;;;;;18.50;12.10;;;2.70;99.90;;;;;;5053512;28;20211;-63
2023/02/08 04:08:11;;;;;;;18.07;12.30;;;2.70;99.90;;;;;;5055904;28;20223;-62
2023/02/08 04:10:37;;;;;;;15.40;12.45;;;2.70;99.90;;;;;;5072980;28;20418;-63
2023/02/08 04:13:03;;;;;;;16.42;13.50;;;2.60;99.90;;;;;;5072702;28;20223;-62
2023/02/08 04:15:29;;;;;;;15.63;12.20;;;2.60;99.90;;;;;;5072627;28;20190;-62
2023/02/08 04:17:55;;;;;;;16.70;12.80;;;2.60;99.90;;;;;;5055191;28;20635;-62
2023/02/08 04:20:20;;;;;;;16.40;12.50;;;2.60;99.90;;;;;;5056066;28;20200;-62
2023/02/08 04:22:46;;;;;;;18.17;13.80;;;2.50;99.90;;;;;;5070204;28;20210;-63
2023/02/08 04:25:13;;;;;;;14.87;12.07;;;2.50;99.90;;;;;;5073236;28;20588;-62
2023/02/08 04:27:38;;;;;;;18.42;12.80;;;2.50;99.90;;;;;;5072643;28;20656;-62
2023/02/08 04:30:05;;;;;;;16.43;12.40;;;2.50;99.90;;;;;;5073492;28;20188;-62
2023/02/08 04:32:30;;;;;;;15.13;12.95;;;2.50;99.90;;;;;;5069562;28;20202;-62
2023/02/08 04:34:56;;;;;;;20.20;13.20;;;2.60;99.90;;;;;;5067432;28;20201;-62
2023/02/08 04:37:22;;;;;;;16.13;13.10;;;2.50;99.90;;;;;;5069973;28;20187;-62
2023/02/08 04:39:50;;;;;;;16.40;13.70;;;2.40;99.90;;;;;;5071624;28;20675;-62
2023/02/08 04:42:16;;;;;;;15.63;12.75;;;2.60;99.90;;;;;;5052395;28;20189;-62
2023/02/08 04:44:41;;;;;;;16.93;13.97;;;2.40;99.90;;;;;;5052632;28;20182;-62
2023/02/08 04:47:07;;;;;;;14.77;13.10;;;2.40;99.90;;;;;;5017920;28;20263;-62
2023/02/08 04:49:33;;;;;;;16.08;12.57;;;2.30;99.90;;;;;;5033044;28;20516;-67
2023/02/08 04:51:59;;;;;;;16.47;12.53;;;2.40;99.90;;;;;;5048163;28;20194;-62
2023/02/08 04:54:25;;;;;;;15.93;13.07;;;2.40;99.90;;;;;;5035378;28;20215;-62
2023/02/08 04:56:50;;;;;;;15.40;12.90;;;2.40;99.90;;;;;;5019091;28;20188;-62
2023/02/08 04:59:17;;;;;;;17.30;13.23;;;2.40;99.90;;;;;;5033353;28;20927;-63
2023/02/08 05:01:43;;;;;;;14.13;12.73;;;2.50;99.90;;;;;;5036471;28;20190;-62
2023/02/08 05:04:09;;;;;;;17.87;12.57;;;2.50;99.90;;;;;;5042806;28;20273;-62
2023/02/08 05:06:35;;;;;;;16.45;12.85;;;2.50;99.90;;;;;;5027980;28;20212;-67
2023/02/08 05:09:01;;;;;;;17.17;12.75;;;2.30;99.90;;;;;;5049938;28;20172;-62
2023/02/08 05:11:27;;;;;;;17.75;13.18;;;2.30;99.90;;;;;;5042826;28;20216;-63
2023/02/08 05:13:53;;;;;;;15.18;12.95;;;2.20;99.90;;;;;;5038176;28;20224;-63
2023/02/08 05:16:19;;;;;;;17.27;12.80;;;2.20;99.90;;;;;;5032960;28;20180;-62
2023/02/08 05:18:45;;;;;;;16.60;12.87;;;2.30;99.90;;;;;;5032067;28;20266;-63
2023/02/08 05:21:10;;;;;;;14.40;11.60;;;2.30;99.90;;;;;;5015258;28;20213;-62
2023/02/08 05:23:36;;;;;;;16.80;11.80;;;2.30;99.90;;;;;;5046671;28;20184;-66
2023/02/08 05:26:07;;;;;;;13.90;10.93;;;2.30;99.90;;;;;;5048779;28;20234;-62
2023/02/08 05:28:33;;;;;;;19.55;12.23;;;2.30;99.90;;;;;;5025903;28;20176;-62
2023/02/08 05:30:58;;;;;;;12.48;11.15;;;2.30;99.90;;;;;;5051463;28;20187;-62
2023/02/08 05:33:24;;;;;;;13.37;11.30;;;2.40;99.90;;;;;;5046683;28;20212;-63
2023/02/08 05:35:50;;;;;;;15.27;10.60;;;2.40;99.90;;;;;;5035112;28;20188;-63
2023/02/08 05:38:15;;;;;;;13.10;11.10;;;2.40;99.90;;;;;;5032398;28;20186;-62
2023/02/08 05:40:41;;;;;;;14.73;11.90;;;2.40;99.90;;;;;;5026487;28;20335;-63
2023/02/08 05:43:07;;;;;;;15.77;14.07;;;2.40;99.90;;;;;;5071544;28;20192;-63
2023/02/08 05:45:32;;;;;;;12.50;11.20;;;2.40;99.90;;;;;;5059908;28;20656;-62
2023/02/08 05:47:58;;;;;;;14.90;10.77;;;2.40;99.90;;;;;;5068286;28;20258;-62
2023/02/08 05:50:24;;;;;;;12.57;10.40;;;2.40;99.90;;;;;;5072932;28;20623;-63
2023/02/08 05:52:49;;;;;;;22.03;13.13;;;2.40;99.90;;;;;;5063638;28;20219;-63
2023/02/08 05:55:15;;;;;;;12.30;10.80;;;2.40;99.90;;;;;;5064980;28;20182;-62
2023/02/08 05:57:41;;;;;;;14.32;11.60;;;2.40;99.90;;;;;;5056413;28;20210;-63
2023/02/08 06:00:08;;;;;;;14.20;11.20;;;2.40;99.90;;;;;;5070479;28;20184;-63
2023/02/08 06:02:33;;;;;;;14.15;12.52;;;2.40;99.90;;;;;;5053605;28;20228;-63
2023/02/08 06:04:59;;;;;;;13.00;10.73;;;2.30;99.90;;;;;;5052077;28;20185;-63
2023/02/08 06:07:25;;;;;;;15.33;10.70;;;2.30;99.90;;;;;;5051108;28;20203;-63
2023/02/08 06:09:50;;;;;;;14.73;10.53;;;2.40;99.90;;;;;;5049610;28;20192;-63
2023/02/08 06:12:16;;;;;;;14.63;11.50;;;2.40;99.90;;;;;;5061612;28;20750;-63
2023/02/08 06:14:42;;;;;;;12.90;11.23;;;2.40;99.90;;;;;;5053123;28;20192;-67
2023/02/08 06:17:07;;;;;;;12.57;10.60;;;2.40;99.90;;;;;;5058222;28;20182;-63
2023/02/08 06:19:33;;;;;;;13.47;10.83;;;2.30;99.90;;;;;;5072334;28;20180;-63
2023/02/08 06:21:59;;;;;;;12.47;10.50;;;2.30;99.90;;;;;;5066506;28;20179;-63
2023/02/08 06:24:24;;;;;;;11.90;10.40;;;2.20;99.90;;;;;;5072312;28;20200;-63
2023/02/08 06:26:50;;;;;;;16.47;11.67;;;2.10;99.90;;;;;;5056313;28;20184;-63
2023/02/08 06:29:16;;;;;;;17.93;11.90;;;2.10;99.90;;;;;;5053326;28;20183;-63
2023/02/08 06:31:41;;;;;;;15.80;12.53;;;2.10;99.90;;;;;;5064092;28;20183;-63
2023/02/08 06:34:07;;;;;;;12.00;10.23;;;2.00;99.90;;;;;;5068484;28;20690;-64
2023/02/08 06:36:33;;;;;;;13.50;10.70;;;2.00;99.90;;;;;;5071676;28;20178;-63
2023/02/08 06:38:59;;;;;;;15.60;11.00;;;2.10;99.90;;;;;;5070919;28;20312;-64
2023/02/08 06:41:24;;;;;;;16.63;11.00;;;2.10;99.90;;;;;;5055108;28;20310;-64
2023/02/08 06:43:50;;;;;;;16.23;11.50;;;2.20;99.90;;;;;;5047593;28;20220;-63
2023/02/08 06:46:16;;;;;;;12.50;10.70;;;2.20;99.90;;;;;;5049779;28;20266;-63
2023/02/08 06:48:41;;;;;;;17.80;11.53;;;2.10;99.90;;;;;;5033580;28;20181;-67
2023/02/08 06:51:07;;;;;;;16.00;13.40;;;2.10;99.90;;;;;;5051370;28;20175;-63
2023/02/08 06:53:33;;;;;;;16.10;12.37;;;2.00;99.90;;;;;;5016542;28;20724;-63
2023/02/08 06:55:58;;;;;;;14.67;11.20;;;1.80;99.90;;;;;;5030636;28;20249;-63
2023/02/08 06:58:24;;;;;;;17.33;11.70;;;1.90;99.90;;;;;;5034086;28;20258;-69
2023/02/08 07:00:50;;;;;;;19.77;13.00;;;1.90;99.90;;;;;;5049152;28;20196;-66
2023/02/08 07:03:18;;;;;;;15.97;14.27;;;2.70;99.90;;;;;;5048456;28;20684;-66
2023/02/08 07:05:44;;;;;;;14.02;12.55;;;3.80;99.90;;;;;;5042195;28;20457;-64
2023/02/08 07:08:10;;;;;;;15.27;11.93;;;4.90;99.90;;;;;;4997833;28;20637;-63
2023/02/08 07:10:38;;;;;;;14.90;13.00;;;5.10;99.90;;;;;;5018311;28;20252;-63
2023/02/08 07:13:03;;;;;;;13.43;11.80;;;5.00;97.20;;;;;;5037456;28;20221;-63
2023/02/08 07:15:29;;;;;;;14.00;11.60;;;4.80;95.20;;;;;;5038009;28;20248;-63
2023/02/08 07:17:56;;;;;;;16.17;11.60;;;4.60;94.20;;;;;;5013402;28;20182;-63
2023/02/08 07:20:21;;;;;;;15.38;11.55;;;4.40;93.60;;;;;;5014568;28;20178;-63
2023/02/08 07:22:47;;;;;;;15.97;12.23;;;4.20;93.40;;;;;;5034754;28;20637;-63
2023/02/08 07:25:13;;;;;;;14.23;10.57;;;4.00;93.50;;;;;;5017851;28;20185;-63
2023/02/08 07:27:38;;;;;;;11.83;10.50;;;3.80;94.10;;;;;;5027489;28;20245;-63
2023/02/08 07:30:06;;;;;;;12.60;11.30;;;3.70;94.80;;;;;;5054387;28;20181;-63
2023/02/08 07:32:33;;;;;;;14.05;11.18;;;3.60;95.30;;;;;;5025216;28;20222;-63
2023/02/08 07:34:58;;;;;;;11.57;10.27;;;3.40;95.70;;;;;;5033919;28;20232;-63
2023/02/08 07:37:25;;;;;;;14.40;11.00;;;3.30;96.10;;;;;;5036324;28;20190;-63
2023/02/08 07:39:51;;;;;;;12.57;11.25;;;3.30;96.60;;;;;;5016510;28;20183;-63
2023/02/08 07:42:17;;;;;;;13.73;10.80;;;3.20;97.00;;;;;;5017394;28;20169;-64
2023/02/08 07:44:43;;;;;;;13.40;11.80;;;3.10;97.30;;;;;;5034853;28;20235;-67
2023/02/08 07:47:09;;;;;;;16.33;12.23;;;3.10;98.00;;;;;;5048537;28;20428;-63
2023/02/08 07:49:35;;;;;;;16.23;11.38;;;3.00;98.50;;;;;;5022075;28;20189;-63
2023/02/08 07:52:01;;;;;;;16.53;13.20;;;3.00;98.90;;;;;;5016443;28;20208;-64
2023/02/08 07:54:28;;;;;;;13.95;11.10;;;3.00;99.20;;;;;;5038190;28;20877;-63
2023/02/08 07:56:54;;;;;;;13.05;10.50;;;3.00;99.40;;;;;;5040241;28;20217;-63
2023/02/08 07:59:20;;;;;;;16.48;12.38;;;3.00;99.70;;;;;;5036262;28;20236;-63
2023/02/08 08:01:45;;;;;;;14.70;12.57;;;3.00;99.90;;;;;;4999534;28;20189;-64
2023/02/08 08:04:11;;;;;;;16.93;12.70;;;3.00;99.90;;;;;;5048704;28;20703;-63
2023/02/08 08:06:37;;;;;;;19.63;13.57;;;3.00;99.90;;;;;;5054330;28;20180;-63
2023/02/08 08:09:03;;;;;;;18.77;14.10;;;3.00;99.90;;;;;;5015476;28;20520;-63
2023/02/08 08:11:28;;;;;;;16.80;12.53;;;3.00;99.90;;;;;;5034273;28;20193;-63
2023/02/08 08:13:56;;;;;;;24.70;13.10;;;3.00;99.90;;;;;;5033461;28;20857;-63
2023/02/08 08:16:22;;;;;;;20.05;12.85;;;3.00;99.90;;;;;;5034356;28;20188;-63
2023/02/08 08:18:48;;;;;;;20.10;13.23;;;3.00;99.90;;;;;;5051441;28;20193;-64
2023/02/08 08:21:15;;;;;;;17.58;11.80;;;3.10;99.90;;;;;;5053931;28;20653;-63
2023/02/08 08:23:41;;;;;;;16.23;12.27;;;3.10;99.90;;;;;;5054167;28;20189;-63
2023/02/08 08:26:15;;;;;;;17.30;12.90;;;3.10;99.90;;;;;;5053468;28;20185;-63
2023/02/08 08:28:42;;;;;;;14.07;12.02;;;3.10;99.90;;;;;;5053775;28;20271;-63
2023/02/08 08:31:09;;;;;;;16.63;12.55;;;3.20;99.90;;;;;;5051626;28;20182;-63
2023/02/08 08:33:35;;;;;;;15.65;12.77;;;3.30;99.90;;;;;;5053477;28;20602;-63
2023/02/08 08:36:01;;;;;;;16.50;12.53;;;3.30;99.90;;;;;;5053310;28;20184;-63
2023/02/08 08:38:26;;;;;;;15.50;12.40;;;3.40;99.90;;;;;;5054036;28;20174;-63
2023/02/08 08:40:52;;;;;;;12.90;11.50;;;3.40;99.90;;;;;;5052716;28;20221;-63
2023/02/08 08:43:18;;;;;;;14.43;12.40;;;3.50;99.90;;;;;;5053832;28;20189;-63
2023/02/08 08:45:43;;;;;;;14.90;12.40;;;3.50;99.90;;;;;;5053696;28;20193;-64
2023/02/08 08:48:09;;;;;;;14.73;12.87;;;3.60;99.40;;;;;;5052075;28;20189;-63
2023/02/08 08:50:35;;;;;;;16.93;12.17;;;3.60;99.40;;;;;;5035869;28;20185;-63
2023/02/08 08:53:01;;;;;;;18.60;12.07;;;3.70;98.80;;;;;;5052576;28;20844;-63
2023/02/08 08:55:27;;;;;;;14.67;12.10;;;3.80;98.00;;;;;;5053396;28;20443;-63
2023/02/08 08:57:53;;;;;;;17.87;12.03;;;3.70;99.00;;;;;;5052843;28;20645;-63
2023/02/08 09:00:18;;;;;;;19.07;13.23;;;3.80;99.30;;;;;;5019094;28;20184;-63
2023/02/08 09:02:44;;;;;;;19.47;11.40;;;3.90;99.90;;;;;;5053064;28;20184;-63
2023/02/08 09:05:10;;;;;;;17.97;12.40;;;3.90;99.60;;;;;;5051480;28;20486;-63
2023/02/08 09:07:35;;;;;;;15.10;11.50;;;4.00;99.30;;;;;;5053321;28;20637;-63
2023/02/08 09:10:01;;;;;;;16.90;11.57;;;4.20;99.70;;;;;;5052339;28;20183;-63
2023/02/08 09:12:27;;;;;;;15.77;11.37;;;4.20;99.10;;;;;;5050910;28;20181;-63
2023/02/08 09:14:53;;;;;;;14.65;12.45;;;4.20;99.40;;;;;;5034187;28;20177;-64
2023/02/08 09:17:19;;;;;;;13.90;11.90;;;4.30;99.20;;;;;;5035030;28;20182;-63
2023/02/08 09:19:47;;;;;;;12.87;10.60;;;4.50;98.90;;;;;;5050847;28;20188;-64
2023/02/08 09:22:13;;;;;;;22.33;12.13;;;4.50;98.70;;;;;;5051815;28;20635;-63
2023/02/08 09:24:39;;;;;;;13.73;11.90;;;4.70;99.90;;;;;;5052993;28;20189;-64
2023/02/08 09:27:05;;;;;;;15.60;11.93;;;5.10;99.50;;;;;;5052001;28;20178;-63
2023/02/08 09:29:32;;;;;;;13.60;12.03;;;5.40;98.70;;;;;;5052806;28;20257;-63
2023/02/08 09:31:58;;;;;;;14.50;10.95;;;5.70;97.50;;;;;;5052323;28;20818;-63
2023/02/08 09:34:24;;;;;;;18.17;11.33;;;5.90;95.90;;;;;;5052686;28;20220;-63
2023/02/08 09:36:50;;;;;;;16.83;10.03;;;6.30;93.60;;;;;;5051138;28;20201;-68
2023/02/08 09:39:19;;;;;;;15.53;11.63;;;6.50;91.90;;;;;;5052576;28;20442;-63
2023/02/08 09:41:47;;;;;;;10.97;9.87;;;6.70;89.00;;;;;;5052819;28;20459;-63
2023/02/08 09:44:16;;;;;;;13.83;10.23;;;6.80;86.00;;;;;;5050994;28;20933;-63
2023/02/08 09:47:14;;;;;;;13.20;11.50;;;6.90;84.90;;;;;;5052588;28;20409;-63
2023/02/08 09:49:48;;;;;;;14.40;11.60;;;7.10;85.30;;;;;;5018304;28;20422;-63
2023/02/08 09:52:19;;;;;;;12.57;11.27;;;7.30;85.00;;;;;;5034007;28;20391;-63
2023/02/08 09:54:51;;;;;;;15.23;11.90;;;7.60;86.90;;;;;;5052309;28;20411;-63
2023/02/08 09:57:21;;;;;;;14.00;11.67;;;7.90;87.50;;;;;;5033252;28;20428;-63
2023/02/08 09:59:59;;;;;;;13.00;11.60;;;8.10;85.80;;;;;;5016510;28;20487;-63
2023/02/08 10:02:30;;;;;;;17.70;11.83;;;8.40;84.10;;;;;;5052840;28;20799;-63
2023/02/08 10:05:12;;;;;;;12.00;10.57;;;8.60;83.10;;;;;;5051916;28;20804;-63
2023/02/08 10:07:41;;;;;;;13.20;12.00;;;8.80;82.30;;;;;;5052402;28;20451;-62
2023/02/08 10:10:20;;;;;;;13.07;10.20;;;9.00;82.60;;;;;;5033084;28;20420;-61
2023/02/08 10:12:59;;;;;;;12.67;9.73;;;9.10;80.60;;;;;;5052294;28;20859;-63
2023/02/08 10:15:47;;;;;;;13.90;12.40;;;9.30;75.80;;;;;;5052890;28;20398;-62
2023/02/08 10:18:34;;;;;;;14.77;12.20;;;9.40;77.90;;;;;;4993455;28;20544;-62
2023/02/08 10:21:12;;;;;;;16.80;12.23;;;9.40;79.60;;;;;;5031904;28;20481;-62
2023/02/08 10:23:50;;;;;;;18.13;13.87;;;9.50;79.10;;;;;;5014793;28;20993;-62
2023/02/08 10:26:16;;;;;;;13.70;11.40;;;9.70;79.40;;;;;;5031485;28;20417;-62
2023/02/08 10:28:47;;;;;;;15.03;13.30;;;9.80;81.50;;;;;;5032428;28;20460;-62
2023/02/08 10:31:48;;;;;;;17.87;14.47;;;10.10;77.00;;;;;;5048018;28;20596;-62
2023/02/08 10:34:42;;;;;;;15.00;12.73;;;10.20;81.50;;;;;;4963118;28;20477;-63
2023/02/08 10:37:18;;;;;;;15.53;12.40;;;10.50;79.70;;;;;;5051625;28;20419;-63
2023/02/08 10:39:45;;;;;;;15.60;12.10;;;10.80;75.90;;;;;;5051497;28;20418;-63
2023/02/08 10:42:16;;;;;;;12.53;11.33;;;11.20;70.30;;;;;;5051402;28;20431;-63
2023/02/08 10:44:51;;;;;;;11.47;10.30;;;11.50;67.60;;;;;;5051874;28;20396;-62
2023/02/08 10:47:37;;;;;;;13.63;11.30;;;11.50;66.40;;;;;;5051699;28;20521;-62
2023/02/08 10:50:07;;;;;;;11.17;10.17;;;11.70;62.00;;;;;;5050035;28;20931;-63
2023/02/08 10:52:32;;;;;;;9.90;8.90;;;11.90;61.90;;;;;;5052153;28;20426;-62
2023/02/08 10:54:58;;;;;;;11.20;9.70;;;12.10;57.60;;;;;;5035579;28;20403;-63
2023/02/08 10:57:33;;;;;;;9.63;8.47;;;12.30;53.70;;;;;;5055846;28;20174;-63
2023/02/08 11:00:05;;;;;;;10.10;9.20;;;12.60;54.50;;;;;;5055260;28;20266;-63
2023/02/08 11:02:37;;;;;;;8.37;7.53;;;12.80;50.60;;;;;;5055510;28;20421;-63
2023/02/08 11:05:11;;;;;;;7.13;6.50;;;12.90;49.10;;;;;;5055053;28;20408;-62
2023/02/08 11:07:37;;;;;;;10.40;8.43;;;13.00;51.10;;;;;;5055851;28;20409;-62
2023/02/08 11:10:19;;;;;;;10.20;9.03;;;13.30;47.70;;;;;;5055099;28;20411;-62
2023/02/08 11:13:02;;;;;;;9.23;8.03;;;13.40;48.50;;;;;;5025442;28;20474;-63
2023/02/08 11:15:51;;;;;;;11.67;8.40;;;13.50;45.50;;;;;;5052400;28;20511;-62
2023/02/08 11:18:21;;;;;;;9.00;8.10;;;13.70;46.10;;;;;;5054539;28;20422;-63
2023/02/08 11:20:50;;;;;;;6.70;6.00;;;13.70;44.10;;;;;;5055345;28;20883;-63
2023/02/08 11:23:21;;;;;;;8.67;6.43;;;13.80;42.90;;;;;;5054622;28;20723;-63
2023/02/08 11:25:47;;;;;;;6.67;6.07;;;13.90;44.90;;;;;;5055228;28;20503;-63
2023/02/08 11:28:30;;;;;;;7.50;6.80;;;14.10;41.30;;;;;;5036762;28;20451;-63
2023/02/08 11:30:58;;;;;;;5.70;5.20;;;14.30;39.20;;;;;;5055444;28;20552;-63
2023/02/08 11:33:26;;;;;;;5.67;4.60;;;14.40;38.40;;;;;;5053015;28;20906;-63
2023/02/08 11:36:01;;;;;;;7.23;6.60;;;14.50;38.50;;;;;;5053497;28;20428;-63
2023/02/08 11:38:28;;;;;;;6.00;5.40;;;14.50;38.10;;;;;;5055049;28;20397;-63
2023/02/08 11:40:57;;;;;;;6.27;5.83;;;14.60;36.50;;;;;;5058654;28;20807;-63
2023/02/08 11:43:34;;;;;;;5.90;5.50;;;14.60;37.50;;;;;;5055036;28;20765;-63
2023/02/08 11:46:03;;;;;;;6.50;5.90;;;14.70;38.90;;;;;;5036422;28;20412;-64
2023/02/08 11:48:38;;;;;;;5.60;5.10;;;14.90;38.30;;;;;;5054614;28;20449;-63
2023/02/08 11:51:05;;;;;;;6.53;6.13;;;14.80;39.50;;;;;;5053850;28;20415;-63
2023/02/08 11:53:38;;;;;;;6.30;5.70;;;14.90;37.90;;;;;;5054572;28;20552;-63
2023/02/08 11:56:16;;;;;;;6.33;5.73;;;15.10;37.90;;;;;;5050649;28;20828;-63
2023/02/08 11:58:55;;;;;;;5.63;5.13;;;15.20;36.40;;;;;;5054335;28;20510;-63
2023/02/08 12:01:38;;;;;;;6.47;5.80;;;15.30;37.00;;;;;;5036053;28;20837;-63
2023/02/08 12:04:07;;;;;;;7.97;6.20;;;15.30;34.20;;;;;;5053833;28;20422;-63
2023/02/08 12:07:06;;;;;;;7.87;7.37;;;15.40;34.10;;;;;;5051656;28;20500;-63
2023/02/08 12:09:41;;;;;;;4.00;3.60;;;15.40;34.00;;;;;;5054548;28;20422;-63
2023/02/08 12:12:35;;;;;;;4.57;4.27;;;15.50;34.20;;;;;;5035849;28;20417;-63
2023/02/08 12:15:26;;;;;;;5.47;5.03;;;15.60;33.70;;;;;;5053756;28;20404;-64
2023/02/08 12:18:19;;;;;;;4.57;4.23;;;15.60;33.40;;;;;;5053469;28;20474;-63
2023/02/08 12:20:46;;;;;;;5.23;4.83;;;15.70;31.70;;;;;;5054217;28;20460;-63
2023/02/08 12:23:36;;;;;;;4.90;4.60;;;15.60;34.10;;;;;;5032272;28;20435;-63
2023/02/08 12:26:11;;;;;;;5.20;4.80;;;15.60;34.20;;;;;;5053575;28;20391;-64
2023/02/08 12:28:58;;;;;;;4.67;4.37;;;15.50;30.60;;;;;;5053883;28;20399;-63
2023/02/08 12:31:42;;;;;;;6.13;4.37;;;15.40;31.00;;;;;;5053219;28;20926;-63
2023/02/08 12:34:18;;;;;;;5.30;4.90;;;15.30;33.60;;;;;;5053366;28;20451;-63
2023/02/08 12:40:48;;;;;;;5.30;4.90;;;15.50;34.30;;;;;;5053993;28;20406;-63
2023/02/08 12:43:02;;;;;;;5.10;4.60;;;15.70;32.20;;;;;;5053962;28;20458;-63
2023/02/08 12:45:49;;;;;;;5.40;5.03;;;15.60;33.50;;;;;;5053480;28;20406;-63
2023/02/08 12:48:46;;;;;;;4.90;4.60;;;15.50;33.30;;;;;;5053082;28;20401;-63
2023/02/08 12:51:33;;;;;;;5.43;5.13;;;15.40;31.90;;;;;;5053107;28;20510;-63
2023/02/08 12:54:22;;;;;;;4.80;4.30;;;15.10;35.10;;;;;;5019198;28;20472;-63
2023/02/08 12:56:49;;;;;;;6.43;6.03;;;15.00;35.00;;;;;;5035530;28;21029;-62
2023/02/08 12:59:27;;;;;;;5.23;4.83;;;14.90;33.40;;;;;;5052553;28;20412;-65
2023/02/08 13:02:00;;;;;;;6.97;6.47;;;14.80;36.30;;;;;;5036602;28;20520;-63